Time;durP1;ratioP1;P1;durP2;ratioP2;P2;SDS_P1;SDS_P2;PMS_P1;PMS_P2;Temp;Humidity;BMP_temperature;BMP_pressure;BME280_temperature;BME280_humidity;BME280_pressure;Samples;Min_cycle;Max_cycle;Signal;HPM_P1;HPM_P2
2022/03/14 00:02:09;;;;;;;3.78;1.20;;;;;;;;;;5067526;28;20036;-74
2022/03/14 00:04:36;;;;;;;7.22;2.08;;;;;;;;;;5068183;28;20036;-73
2022/03/14 00:07:02;;;;;;;5.45;1.27;;;;;;;;;;5067911;28;20060;-73
2022/03/14 00:09:28;;;;;;;6.80;2.70;;;;;;;;;;5067713;28;20036;-73
2022/03/14 00:11:55;;;;;;;9.35;4.80;;;;;;;;;;5064905;28;20075;-73
2022/03/14 00:14:25;;;;;;;8.88;3.95;;;;;;;;;;5057742;28;20024;-73
2022/03/14 00:16:55;;;;;;;10.35;5.05;;;;;;;;;;5068038;28;20086;-73
2022/03/14 00:19:22;;;;;;;7.10;3.97;;;;;;;;;;5067336;28;20102;-73
2022/03/14 00:21:49;;;;;;;7.20;2.70;;;;;;;;;;5055586;28;20032;-74
2022/03/14 00:24:15;;;;;;;4.38;1.30;;;;;;;;;;5067244;28;20082;-73
2022/03/14 00:26:41;;;;;;;3.85;1.00;;;;;;;;;;5063630;28;20082;-73
2022/03/14 00:29:08;;;;;;;3.90;1.50;;;;;;;;;;5068263;28;20047;-74
2022/03/14 00:31:34;;;;;;;6.30;2.83;;;;;;;;;;5054358;28;20029;-73
2022/03/14 00:34:00;;;;;;;7.00;2.40;;;;;;;;;;5068115;28;20079;-74
2022/03/14 00:36:27;;;;;;;7.28;2.30;;;;;;;;;;5060478;28;20475;-73
2022/03/14 00:38:53;;;;;;;5.72;1.48;;;;;;;;;;5068109;28;20033;-73
2022/03/14 00:41:19;;;;;;;3.92;1.35;;;;;;;;;;5067836;28;20024;-74
2022/03/14 00:43:46;;;;;;;5.38;1.08;;;;;;;;;;5066266;28;20055;-73
2022/03/14 00:46:13;;;;;;;4.35;1.05;;;;;;;;;;5063546;28;20040;-73
2022/03/14 00:48:39;;;;;;;1.80;0.70;;;;;;;;;;5070650;28;20047;-73
2022/03/14 00:51:05;;;;;;;2.95;1.00;;;;;;;;;;5071667;28;20041;-73
2022/03/14 00:53:32;;;;;;;1.73;0.73;;;;;;;;;;5072114;28;20029;-73
2022/03/14 00:56:01;;;;;;;1.83;0.70;;;;;;;;;;5073491;28;20127;-73
2022/03/14 00:58:28;;;;;;;2.78;0.95;;;;;;;;;;5070234;28;20020;-73
2022/03/14 01:00:54;;;;;;;4.32;0.90;;;;;;;;;;5071378;28;20036;-73
2022/03/14 01:03:20;;;;;;;3.17;0.70;;;;;;;;;;5070946;28;20036;-73
2022/03/14 01:05:46;;;;;;;2.40;0.70;;;;;;;;;;5054416;28;20414;-73
2022/03/14 01:08:12;;;;;;;3.20;0.52;;;;;;;;;;5071223;28;20451;-73
2022/03/14 01:10:38;;;;;;;3.63;0.63;;;;;;;;;;5071219;28;20080;-73
2022/03/14 01:13:04;;;;;;;1.90;0.70;;;;;;;;;;5071755;28;20446;-73
2022/03/14 01:15:32;;;;;;;2.97;0.52;;;;;;;;;;5070439;28;20064;-73
2022/03/14 01:17:58;;;;;;;1.30;0.50;;;;;;;;;;5070326;28;20032;-73
2022/03/14 01:20:25;;;;;;;4.78;1.13;;;;;;;;;;5061121;28;20470;-73
2022/03/14 01:22:54;;;;;;;11.65;6.20;;;;;;;;;;5051684;28;20047;-73
2022/03/14 01:25:20;;;;;;;9.55;5.00;;;;;;;;;;5062631;28;20037;-73
2022/03/14 01:27:46;;;;;;;9.52;5.05;;;;;;;;;;5071296;28;20486;-73
2022/03/14 01:30:14;;;;;;;6.55;3.03;;;;;;;;;;5070197;28;20074;-73
2022/03/14 01:32:40;;;;;;;5.57;2.35;;;;;;;;;;5067461;28;20115;-73
2022/03/14 01:35:07;;;;;;;7.55;2.75;;;;;;;;;;5071046;28;20108;-73
2022/03/14 01:37:33;;;;;;;9.00;3.90;;;;;;;;;;5064183;28;20130;-73
2022/03/14 01:39:59;;;;;;;9.95;4.18;;;;;;;;;;5070918;28;20040;-73
2022/03/14 01:42:25;;;;;;;6.28;2.92;;;;;;;;;;5069637;28;20132;-73
2022/03/14 01:44:51;;;;;;;5.30;2.40;;;;;;;;;;5070334;28;20028;-73
2022/03/14 01:47:17;;;;;;;5.57;2.00;;;;;;;;;;5070186;28;20036;-73
2022/03/14 01:49:44;;;;;;;6.75;1.70;;;;;;;;;;5070900;28;20037;-74
2022/03/14 01:52:10;;;;;;;4.35;2.13;;;;;;;;;;5060299;28;20108;-73
2022/03/14 01:54:37;;;;;;;5.05;2.13;;;;;;;;;;5071280;28;20078;-73
2022/03/14 01:57:04;;;;;;;5.70;2.38;;;;;;;;;;5070216;28;20028;-73
2022/03/14 01:59:30;;;;;;;5.57;2.00;;;;;;;;;;5070085;28;20116;-73
2022/03/14 02:01:56;;;;;;;3.95;1.83;;;;;;;;;;5069828;28;20036;-73
2022/03/14 02:04:23;;;;;;;4.85;2.63;;;;;;;;;;5070686;28;20037;-73
2022/03/14 02:06:52;;;;;;;6.32;2.72;;;;;;;;;;5069732;28;20207;-73
2022/03/14 02:09:18;;;;;;;4.47;1.77;;;;;;;;;;5069704;28;20124;-74
2022/03/14 02:11:56;;;;;;;4.82;2.20;;;;;;;;;;5069452;28;20032;-73
2022/03/14 02:14:25;;;;;;;6.18;2.13;;;;;;;;;;5070026;28;20070;-74
2022/03/14 02:16:52;;;;;;;4.85;2.83;;;;;;;;;;5069443;28;20031;-73
2022/03/14 02:19:18;;;;;;;5.75;2.47;;;;;;;;;;5068926;28;20036;-73
2022/03/14 02:21:44;;;;;;;4.93;1.92;;;;;;;;;;5070311;28;20111;-73
2022/03/14 02:24:11;;;;;;;4.82;2.42;;;;;;;;;;5069800;28;20036;-74
2022/03/14 02:26:40;;;;;;;7.00;2.97;;;;;;;;;;5050255;28;20033;-73
2022/03/14 02:29:09;;;;;;;5.30;2.00;;;;;;;;;;5064712;28;20032;-73
2022/03/14 02:31:36;;;;;;;3.75;1.98;;;;;;;;;;5069364;28;20476;-73
2022/03/14 02:34:03;;;;;;;5.32;2.67;;;;;;;;;;5068397;28;20519;-73
2022/03/14 02:36:29;;;;;;;4.00;2.10;;;;;;;;;;5069199;28;20032;-73
2022/03/14 02:38:55;;;;;;;4.75;2.28;;;;;;;;;;5057846;28;20850;-73
2022/03/14 02:41:24;;;;;;;7.22;2.70;;;;;;;;;;5060763;28;20032;-74
2022/03/14 02:43:50;;;;;;;5.28;2.35;;;;;;;;;;5068418;28;20048;-73
2022/03/14 02:46:16;;;;;;;5.28;2.33;;;;;;;;;;5069423;28;20028;-73
2022/03/14 02:48:43;;;;;;;4.30;2.35;;;;;;;;;;5069187;28;20045;-73
2022/03/14 02:51:09;;;;;;;4.70;2.72;;;;;;;;;;5070169;28;20463;-73
2022/03/14 02:53:35;;;;;;;4.50;2.70;;;;;;;;;;5068812;28;20043;-72
2022/03/14 02:56:01;;;;;;;6.85;2.20;;;;;;;;;;5068995;28;20024;-73
2022/03/14 02:58:29;;;;;;;3.30;2.00;;;;;;;;;;5068622;28;20032;-73
2022/03/14 03:00:56;;;;;;;4.80;2.10;;;;;;;;;;5069349;28;20033;-74
2022/03/14 03:03:22;;;;;;;3.67;1.77;;;;;;;;;;5068299;28;20040;-73
2022/03/14 03:05:48;;;;;;;2.70;1.33;;;;;;;;;;5059367;28;20029;-73
2022/03/14 03:08:14;;;;;;;4.80;1.73;;;;;;;;;;5068812;28;20048;-73
2022/03/14 03:10:42;;;;;;;2.97;1.33;;;;;;;;;;5068079;28;20056;-73
2022/03/14 03:13:10;;;;;;;3.28;1.10;;;;;;;;;;5068644;28;20097;-73
2022/03/14 03:15:37;;;;;;;3.13;1.30;;;;;;;;;;5064968;28;20135;-73
2022/03/14 03:18:04;;;;;;;4.82;2.03;;;;;;;;;;5068555;28;20032;-73
2022/03/14 03:20:30;;;;;;;2.47;1.20;;;;;;;;;;5060326;28;20490;-73
2022/03/14 03:22:56;;;;;;;4.25;1.60;;;;;;;;;;5068962;28;20395;-72
2022/03/14 03:25:22;;;;;;;7.90;1.15;;;;;;;;;;5066939;28;20467;-73
2022/03/14 03:27:48;;;;;;;3.05;1.30;;;;;;;;;;5068116;28;20039;-73
2022/03/14 03:30:14;;;;;;;4.75;2.53;;;;;;;;;;5067547;28;20036;-73
2022/03/14 03:32:40;;;;;;;5.47;2.88;;;;;;;;;;5067821;28;20044;-73
2022/03/14 03:35:07;;;;;;;6.00;2.67;;;;;;;;;;5067616;28;20494;-73
2022/03/14 03:37:33;;;;;;;5.28;2.78;;;;;;;;;;5068661;28;20040;-73
2022/03/14 03:39:59;;;;;;;6.82;3.55;;;;;;;;;;5068264;28;20032;-73
2022/03/14 03:42:25;;;;;;;5.05;2.95;;;;;;;;;;5068362;28;20151;-73
2022/03/14 03:44:51;;;;;;;7.60;3.55;;;;;;;;;;5068503;28;20143;-73
2022/03/14 03:47:17;;;;;;;5.10;2.95;;;;;;;;;;5067285;28;20483;-72
2022/03/14 03:49:43;;;;;;;5.13;2.40;;;;;;;;;;5067408;28;20045;-73
2022/03/14 03:52:10;;;;;;;4.55;2.63;;;;;;;;;;5068202;28;20065;-73
2022/03/14 03:54:36;;;;;;;5.35;3.13;;;;;;;;;;5068396;28;20094;-73
2022/03/14 03:57:03;;;;;;;5.93;3.58;;;;;;;;;;5064990;28;20047;-73
2022/03/14 03:59:29;;;;;;;4.25;2.65;;;;;;;;;;5068565;28;20055;-73
2022/03/14 04:01:55;;;;;;;4.63;2.40;;;;;;;;;;5066942;28;20040;-73
2022/03/14 04:04:22;;;;;;;3.78;1.60;;;;;;;;;;5066376;28;20028;-73
2022/03/14 04:06:56;;;;;;;3.47;1.63;;;;;;;;;;5052625;28;20056;-73
2022/03/14 04:09:22;;;;;;;1.88;1.00;;;;;;;;;;5068027;28;20131;-73
2022/03/14 04:11:48;;;;;;;1.70;0.70;;;;;;;;;;5066993;28;20040;-73
2022/03/14 04:14:15;;;;;;;1.90;0.75;;;;;;;;;;5067931;28;20036;-73
2022/03/14 04:16:41;;;;;;;3.58;1.58;;;;;;;;;;5066865;28;20040;-73
2022/03/14 04:19:07;;;;;;;6.32;3.85;;;;;;;;;;5067059;28;20060;-73
2022/03/14 04:21:35;;;;;;;6.00;3.95;;;;;;;;;;5067263;28;20137;-73
2022/03/14 04:24:03;;;;;;;6.30;4.72;;;;;;;;;;5067782;28;20060;-73
2022/03/14 04:26:29;;;;;;;5.85;4.55;;;;;;;;;;5066876;28;20505;-73
2022/03/14 04:28:55;;;;;;;5.07;2.50;;;;;;;;;;5067672;28;20060;-73
2022/03/14 04:31:22;;;;;;;5.32;2.97;;;;;;;;;;5066741;28;20647;-73
2022/03/14 04:33:48;;;;;;;7.80;5.07;;;;;;;;;;5067409;28;20025;-73
2022/03/14 04:36:14;;;;;;;13.75;9.35;;;;;;;;;;5054204;28;20160;-73
2022/03/14 04:38:40;;;;;;;13.20;9.23;;;;;;;;;;5057576;28;20051;-73
2022/03/14 04:41:06;;;;;;;6.10;3.53;;;;;;;;;;5058675;28;20456;-73
2022/03/14 04:43:32;;;;;;;6.07;2.35;;;;;;;;;;5063729;28;20640;-74
2022/03/14 04:45:58;;;;;;;3.67;1.60;;;;;;;;;;5066411;28;20470;-73
2022/03/14 04:48:25;;;;;;;4.32;1.40;;;;;;;;;;5058115;28;20037;-73
2022/03/14 04:50:51;;;;;;;4.53;1.75;;;;;;;;;;5064837;28;20478;-73
2022/03/14 04:53:17;;;;;;;5.18;2.42;;;;;;;;;;5066985;28;20029;-73
2022/03/14 04:55:44;;;;;;;5.10;2.50;;;;;;;;;;5067397;28;20028;-73
2022/03/14 04:58:14;;;;;;;4.47;1.30;;;;;;;;;;5063747;28;20037;-73
2022/03/14 05:00:41;;;;;;;3.00;1.20;;;;;;;;;;5051965;28;20036;-73
2022/03/14 05:03:08;;;;;;;2.83;1.05;;;;;;;;;;5066353;28;20451;-73
2022/03/14 05:05:34;;;;;;;3.22;2.05;;;;;;;;;;5068167;28;20036;-73
2022/03/14 05:08:00;;;;;;;4.00;2.25;;;;;;;;;;5067193;28;20047;-72
2022/03/14 05:10:27;;;;;;;6.68;3.63;;;;;;;;;;5067089;28;20048;-73
2022/03/14 05:12:53;;;;;;;5.38;2.60;;;;;;;;;;5065525;28;20063;-73
2022/03/14 05:15:19;;;;;;;3.60;1.63;;;;;;;;;;5066513;28;20036;-72
2022/03/14 05:17:45;;;;;;;3.78;1.17;;;;;;;;;;5058881;28;20037;-73
2022/03/14 05:20:12;;;;;;;4.40;1.85;;;;;;;;;;5064120;28;20051;-73
2022/03/14 05:22:48;;;;;;;5.32;2.97;;;;;;;;;;5066586;28;20041;-73
2022/03/14 05:25:15;;;;;;;7.10;3.35;;;;;;;;;;5063043;28;20016;-73
2022/03/14 05:27:41;;;;;;;7.75;2.58;;;;;;;;;;5056530;28;20041;-73
2022/03/14 05:30:10;;;;;;;3.38;1.65;;;;;;;;;;5065354;28;20036;-73
2022/03/14 05:32:39;;;;;;;3.45;2.00;;;;;;;;;;5070913;28;20040;-73
2022/03/14 05:35:05;;;;;;;2.47;1.25;;;;;;;;;;5056028;28;20238;-73
2022/03/14 05:37:31;;;;;;;2.20;0.88;;;;;;;;;;5070925;28;20044;-73
2022/03/14 05:39:58;;;;;;;2.75;1.00;;;;;;;;;;5060742;28;20024;-73
2022/03/14 05:42:25;;;;;;;2.63;0.80;;;;;;;;;;5070659;28;20237;-72
2022/03/14 05:44:51;;;;;;;2.83;1.20;;;;;;;;;;5069932;28;20025;-73
2022/03/14 05:47:18;;;;;;;4.15;1.60;;;;;;;;;;5071020;28;20316;-73
2022/03/14 05:49:44;;;;;;;5.65;2.72;;;;;;;;;;5065300;28;20025;-73
2022/03/14 05:52:11;;;;;;;5.15;3.13;;;;;;;;;;5069490;28;20902;-73
2022/03/14 05:54:37;;;;;;;4.82;2.20;;;;;;;;;;5065690;28;20060;-74
2022/03/14 05:57:03;;;;;;;3.85;2.28;;;;;;;;;;5071119;28;20036;-73
2022/03/14 05:59:29;;;;;;;4.57;1.95;;;;;;;;;;5069848;28;20029;-73
2022/03/14 06:01:55;;;;;;;3.67;1.95;;;;;;;;;;5065525;28;20048;-73
2022/03/14 06:04:22;;;;;;;4.65;2.08;;;;;;;;;;5070435;28;20700;-73
2022/03/14 06:06:48;;;;;;;3.70;1.70;;;;;;;;;;5066967;28;20029;-73
2022/03/14 06:09:14;;;;;;;8.00;4.00;;;;;;;;;;5064344;28;20035;-73
2022/03/14 06:11:41;;;;;;;122.22;67.45;;;;;;;;;;5058155;28;20032;-73
2022/03/14 06:14:07;;;;;;;21.98;12.88;;;;;;;;;;5063604;28;20017;-73
2022/03/14 06:16:34;;;;;;;49.40;29.73;;;;;;;;;;5060109;28;20033;-73
2022/03/14 06:19:00;;;;;;;25.52;15.05;;;;;;;;;;5068856;28;20029;-73
2022/03/14 06:21:26;;;;;;;18.80;10.13;;;;;;;;;;5070148;28;20037;-73
2022/03/14 06:23:52;;;;;;;20.95;12.13;;;;;;;;;;5065298;28;20036;-73
2022/03/14 06:26:18;;;;;;;10.75;5.50;;;;;;;;;;5067122;28;20104;-73
2022/03/14 06:28:44;;;;;;;10.65;6.18;;;;;;;;;;5061532;28;20037;-74
2022/03/14 06:31:11;;;;;;;22.02;14.77;;;;;;;;;;5070377;28;20043;-73
2022/03/14 06:33:37;;;;;;;21.00;14.70;;;;;;;;;;5066860;28;20077;-73
2022/03/14 06:36:03;;;;;;;19.75;13.18;;;;;;;;;;5066644;28;20042;-74
2022/03/14 06:38:29;;;;;;;13.60;11.35;;;;;;;;;;5064731;28;20036;-73
2022/03/14 06:40:56;;;;;;;9.57;6.93;;;;;;;;;;5064339;28;20028;-73
2022/03/14 06:43:23;;;;;;;8.25;5.32;;;;;;;;;;5068319;28;20064;-73
2022/03/14 06:45:49;;;;;;;6.95;3.65;;;;;;;;;;5069431;28;20078;-73
2022/03/14 06:48:15;;;;;;;7.30;3.85;;;;;;;;;;5069080;28;20040;-74
2022/03/14 06:50:41;;;;;;;10.98;5.03;;;;;;;;;;5071516;28;20111;-74
2022/03/14 06:53:07;;;;;;;9.48;5.43;;;;;;;;;;5073371;28;20032;-73
2022/03/14 06:55:33;;;;;;;10.45;5.85;;;;;;;;;;5068219;28;20058;-74
2022/03/14 06:57:59;;;;;;;12.40;8.43;;;;;;;;;;5069275;28;20032;-73
2022/03/14 07:00:27;;;;;;;19.52;15.77;;;;;;;;;;5074935;28;20032;-72
2022/03/14 07:02:53;;;;;;;10.77;6.13;;;;;;;;;;5069496;28;20028;-72
2022/03/14 07:05:21;;;;;;;9.07;5.45;;;;;;;;;;5069018;28;20776;-73
2022/03/14 07:07:48;;;;;;;9.20;6.47;;;;;;;;;;5068615;28;20040;-73
2022/03/14 07:10:14;;;;;;;8.27;5.82;;;;;;;;;;5072834;28;20035;-73
2022/03/14 07:12:46;;;;;;;10.85;6.43;;;;;;;;;;5071748;28;20062;-73
2022/03/14 07:15:13;;;;;;;8.60;5.32;;;;;;;;;;5070680;28;20450;-72
2022/03/14 07:17:39;;;;;;;8.55;5.28;;;;;;;;;;5076489;28;20363;-73
2022/03/14 07:20:05;;;;;;;19.73;14.90;;;;;;;;;;5062315;28;20058;-73
2022/03/14 07:22:31;;;;;;;10.27;5.93;;;;;;;;;;5068430;28;20071;-73
2022/03/14 07:24:57;;;;;;;10.00;5.95;;;;;;;;;;5081927;28;20058;-73
2022/03/14 07:27:23;;;;;;;10.52;6.57;;;;;;;;;;5064820;28;20041;-72
2022/03/14 07:29:49;;;;;;;8.18;4.90;;;;;;;;;;5074159;28;20043;-73
2022/03/14 07:32:15;;;;;;;8.93;5.07;;;;;;;;;;5065825;28;20482;-73
2022/03/14 07:34:41;;;;;;;8.00;3.80;;;;;;;;;;5072443;28;20032;-72
2022/03/14 07:37:07;;;;;;;5.50;3.20;;;;;;;;;;5069659;28;20094;-72
2022/03/14 07:39:34;;;;;;;7.53;2.80;;;;;;;;;;5074549;28;20031;-73
2022/03/14 07:42:00;;;;;;;6.13;2.67;;;;;;;;;;5073520;28;20035;-72
2022/03/14 07:44:26;;;;;;;6.95;3.15;;;;;;;;;;5084370;28;20082;-73
2022/03/14 07:46:52;;;;;;;6.20;3.15;;;;;;;;;;5077020;28;20039;-73
2022/03/14 07:49:20;;;;;;;6.55;2.92;;;;;;;;;;5060420;28;20036;-73
2022/03/14 07:51:46;;;;;;;5.18;2.40;;;;;;;;;;5077059;28;20143;-73
2022/03/14 07:54:12;;;;;;;6.55;3.67;;;;;;;;;;5076873;28;20048;-73
2022/03/14 07:56:38;;;;;;;4.32;2.22;;;;;;;;;;5065663;28;20036;-73
2022/03/14 07:59:04;;;;;;;7.15;2.35;;;;;;;;;;5069857;28;20042;-73
2022/03/14 08:01:30;;;;;;;5.13;2.13;;;;;;;;;;5071659;28;20032;-72
2022/03/14 08:03:56;;;;;;;5.10;2.00;;;;;;;;;;5068409;28;20686;-73
2022/03/14 08:06:23;;;;;;;7.43;2.97;;;;;;;;;;5067746;28;20036;-72
2022/03/14 08:08:53;;;;;;;9.40;3.85;;;;;;;;;;5073631;28;20024;-72
2022/03/14 08:11:19;;;;;;;4.30;1.48;;;;;;;;;;5068370;28;20031;-73
2022/03/14 08:13:45;;;;;;;5.07;2.28;;;;;;;;;;5071157;28;20601;-73
2022/03/14 08:16:11;;;;;;;5.63;3.10;;;;;;;;;;5066142;28;20024;-72
2022/03/14 08:18:39;;;;;;;6.13;3.38;;;;;;;;;;5074886;28;20044;-73
2022/03/14 08:21:05;;;;;;;6.95;3.25;;;;;;;;;;5066988;28;20072;-73
2022/03/14 08:23:31;;;;;;;7.35;3.97;;;;;;;;;;5070795;28;20047;-72
2022/03/14 08:25:57;;;;;;;7.05;3.08;;;;;;;;;;5067556;28;20823;-73
2022/03/14 08:28:23;;;;;;;9.07;2.50;;;;;;;;;;5070084;28;20036;-72
2022/03/14 08:30:50;;;;;;;6.88;2.90;;;;;;;;;;5072438;28;20413;-73
2022/03/14 08:33:17;;;;;;;12.23;4.82;;;;;;;;;;5067773;28;20040;-73
2022/03/14 08:35:44;;;;;;;9.13;4.13;;;;;;;;;;5068082;28;20394;-73
2022/03/14 08:38:12;;;;;;;7.03;4.10;;;;;;;;;;5067220;28;20052;-73
2022/03/14 08:40:38;;;;;;;6.47;2.33;;;;;;;;;;5056040;28;20112;-72
2022/03/14 08:43:04;;;;;;;6.00;2.58;;;;;;;;;;5067730;28;20064;-73
2022/03/14 08:45:30;;;;;;;4.60;2.38;;;;;;;;;;5066980;28;20033;-73
2022/03/14 08:47:57;;;;;;;4.63;2.00;;;;;;;;;;5067435;28;20452;-73
2022/03/14 08:50:23;;;;;;;5.65;3.17;;;;;;;;;;5066861;28;20025;-73
2022/03/14 08:52:51;;;;;;;6.55;3.42;;;;;;;;;;5073064;28;20668;-72
2022/03/14 08:55:17;;;;;;;7.43;3.53;;;;;;;;;;5063060;28;20032;-73
2022/03/14 08:57:43;;;;;;;6.18;3.53;;;;;;;;;;5057091;28;20037;-73
2022/03/14 09:00:11;;;;;;;10.23;3.90;;;;;;;;;;5067358;28;20542;-73
2022/03/14 09:02:37;;;;;;;6.93;3.38;;;;;;;;;;5066785;28;20040;-73
2022/03/14 09:05:03;;;;;;;10.02;4.13;;;;;;;;;;5073523;28;20364;-73
2022/03/14 09:07:30;;;;;;;6.93;3.38;;;;;;;;;;5076125;28;20036;-73
2022/03/14 09:10:03;;;;;;;7.00;3.38;;;;;;;;;;5065125;28;20375;-73
2022/03/14 09:12:30;;;;;;;7.45;3.30;;;;;;;;;;5057887;28;20044;-73
2022/03/14 09:14:56;;;;;;;7.15;3.60;;;;;;;;;;5070686;28;20016;-72
2022/03/14 09:17:25;;;;;;;6.47;3.13;;;;;;;;;;5070216;28;20040;-73
2022/03/14 09:19:51;;;;;;;6.93;2.55;;;;;;;;;;5067103;28;20035;-73
2022/03/14 09:22:18;;;;;;;7.65;2.50;;;;;;;;;;5070025;28;20036;-73
2022/03/14 09:24:47;;;;;;;3.75;1.90;;;;;;;;;;5068213;28;20024;-73
2022/03/14 09:27:13;;;;;;;5.32;1.77;;;;;;;;;;5068049;28;20085;-73
2022/03/14 09:29:39;;;;;;;3.60;1.80;;;;;;;;;;5075547;28;20483;-73
2022/03/14 09:32:06;;;;;;;5.05;2.45;;;;;;;;;;5070461;28;20052;-73
2022/03/14 09:34:36;;;;;;;6.50;2.17;;;;;;;;;;5070586;28;20069;-73
2022/03/14 09:37:02;;;;;;;9.27;3.20;;;;;;;;;;5067378;28;20418;-73
2022/03/14 09:39:28;;;;;;;10.23;3.60;;;;;;;;;;5074371;28;20728;-73
2022/03/14 09:41:56;;;;;;;6.25;3.10;;;;;;;;;;5062509;28;20116;-73
2022/03/14 09:44:24;;;;;;;7.25;3.20;;;;;;;;;;5068571;28;20510;-73
2022/03/14 09:46:51;;;;;;;9.85;2.95;;;;;;;;;;5069290;28;20047;-72
2022/03/14 09:49:17;;;;;;;8.25;3.40;;;;;;;;;;5069298;28;20117;-73
2022/03/14 09:51:44;;;;;;;9.15;3.08;;;;;;;;;;5068372;28;20029;-73
2022/03/14 09:54:11;;;;;;;9.13;3.03;;;;;;;;;;5069594;28;20033;-72
2022/03/14 09:56:43;;;;;;;6.60;3.30;;;;;;;;;;5067976;28;20039;-73
2022/03/14 09:59:11;;;;;;;12.15;3.58;;;;;;;;;;5065824;28;20634;-73
2022/03/14 10:01:37;;;;;;;12.13;3.85;;;;;;;;;;5085959;22;20823;-72
2022/03/14 10:04:04;;;;;;;7.75;3.45;;;;;;;;;;5057280;28;20041;-73
2022/03/14 10:06:30;;;;;;;8.68;3.42;;;;;;;;;;5049205;28;20048;-73
2022/03/14 10:08:56;;;;;;;7.57;3.63;;;;;;;;;;5056716;28;20025;-72
2022/03/14 10:11:22;;;;;;;6.18;3.50;;;;;;;;;;5057847;28;20115;-73
2022/03/14 10:13:48;;;;;;;9.48;3.88;;;;;;;;;;5063812;28;20100;-73
2022/03/14 10:16:14;;;;;;;6.90;3.47;;;;;;;;;;5056441;28;20037;-73
2022/03/14 10:19:01;;;;;;;7.72;3.42;;;;;;;;;;5051026;28;20041;-73
2022/03/14 10:21:31;;;;;;;8.82;3.70;;;;;;;;;;5047509;28;20068;-73
2022/03/14 10:23:59;;;;;;;10.73;3.28;;;;;;;;;;5043264;28;20587;-73
2022/03/14 10:26:26;;;;;;;6.28;3.22;;;;;;;;;;5051709;28;20152;-73
2022/03/14 10:28:56;;;;;;;5.43;2.90;;;;;;;;;;5057855;28;20032;-72
2022/03/14 10:31:33;;;;;;;8.57;3.80;;;;;;;;;;5056457;28;20036;-72
2022/03/14 10:34:04;;;;;;;8.57;4.35;;;;;;;;;;5052327;28;20028;-72
2022/03/14 10:36:47;;;;;;;6.90;3.13;;;;;;;;;;5055739;28;20033;-73
2022/03/14 10:39:13;;;;;;;7.45;3.15;;;;;;;;;;5057502;28;20033;-73
2022/03/14 10:41:39;;;;;;;7.25;3.38;;;;;;;;;;5055314;28;20055;-73
2022/03/14 10:44:06;;;;;;;6.10;2.60;;;;;;;;;;5049567;28;20128;-73
2022/03/14 10:46:32;;;;;;;5.63;2.90;;;;;;;;;;5058404;28;20040;-73
2022/03/14 10:48:58;;;;;;;6.70;2.47;;;;;;;;;;5050592;28;20048;-74
2022/03/14 10:51:25;;;;;;;6.53;2.90;;;;;;;;;;5051197;28;20061;-73
2022/03/14 10:53:51;;;;;;;6.63;3.22;;;;;;;;;;5049493;28;20028;-72
2022/03/14 10:56:17;;;;;;;9.32;3.40;;;;;;;;;;5043453;28;20044;-72
2022/03/14 10:58:43;;;;;;;8.32;3.10;;;;;;;;;;5047488;28;20090;-73
2022/03/14 11:01:10;;;;;;;7.85;3.10;;;;;;;;;;5053591;28;20021;-73
2022/03/14 11:03:37;;;;;;;4.57;2.53;;;;;;;;;;5061355;28;20057;-73
2022/03/14 11:06:04;;;;;;;8.80;3.42;;;;;;;;;;5049526;28;20411;-73
2022/03/14 11:08:41;;;;;;;8.15;3.47;;;;;;;;;;5053444;28;20107;-73
2022/03/14 11:11:09;;;;;;;6.03;2.60;;;;;;;;;;5046354;28;20143;-73
2022/03/14 11:13:39;;;;;;;4.65;1.92;;;;;;;;;;5045381;28;20555;-73
2022/03/14 11:16:05;;;;;;;5.05;2.42;;;;;;;;;;5048185;28;20033;-73
2022/03/14 11:18:33;;;;;;;4.70;1.75;;;;;;;;;;5049712;28;20037;-74
2022/03/14 11:21:00;;;;;;;6.70;2.00;;;;;;;;;;5041886;28;20028;-73
2022/03/14 11:23:27;;;;;;;4.78;2.50;;;;;;;;;;5047726;28;20060;-74
2022/03/14 11:25:53;;;;;;;7.15;2.67;;;;;;;;;;5053114;28;20830;-73
2022/03/14 11:28:23;;;;;;;8.27;1.95;;;;;;;;;;5061592;28;20040;-73
2022/03/14 11:30:59;;;;;;;3.67;1.90;;;;;;;;;;5056677;28;20039;-74
2022/03/14 11:33:27;;;;;;;8.27;2.15;;;;;;;;;;5033188;28;20099;-73
2022/03/14 11:35:53;;;;;;;4.88;2.25;;;;;;;;;;5050910;28;20925;-73
2022/03/14 11:38:19;;;;;;;5.53;2.60;;;;;;;;;;5055706;28;20147;-74
2022/03/14 11:40:47;;;;;;;5.82;2.22;;;;;;;;;;5058206;28;20071;-73
2022/03/14 11:43:13;;;;;;;4.57;1.90;;;;;;;;;;5053371;28;20028;-73
2022/03/14 11:45:39;;;;;;;5.80;2.17;;;;;;;;;;5046848;28;20139;-73
2022/03/14 11:48:06;;;;;;;4.03;2.05;;;;;;;;;;5047606;28;20068;-73
2022/03/14 11:50:49;;;;;;;4.03;1.38;;;;;;;;;;5046668;28;20033;-74
2022/03/14 11:53:22;;;;;;;4.10;1.88;;;;;;;;;;5049657;28;20044;-74
2022/03/14 11:55:52;;;;;;;3.80;1.40;;;;;;;;;;5049727;28;20055;-74
2022/03/14 11:58:36;;;;;;;2.22;1.13;;;;;;;;;;5048626;28;20036;-74
2022/03/14 12:01:18;;;;;;;2.47;1.00;;;;;;;;;;5048449;28;20051;-73
2022/03/14 12:03:48;;;;;;;5.77;1.80;;;;;;;;;;5048529;28;20060;-73
2022/03/14 12:06:14;;;;;;;5.05;1.38;;;;;;;;;;5047609;28;20029;-73
2022/03/14 12:08:46;;;;;;;3.30;1.30;;;;;;;;;;5045973;28;20063;-73
2022/03/14 12:11:12;;;;;;;;;;;;;;;;;;5045494;28;20076;-72
2022/03/14 12:13:42;;;;;;;5.05;1.73;;;;;;;;;;5050433;28;20384;-73
2022/03/14 12:16:27;;;;;;;5.28;1.70;;;;;;;;;;5047807;28;20538;-72
2022/03/14 12:18:57;;;;;;;4.25;1.83;;;;;;;;;;5055333;28;20040;-74
2022/03/14 12:21:42;;;;;;;5.38;1.60;;;;;;;;;;5045721;28;20040;-73
2022/03/14 12:24:08;;;;;;;5.47;1.48;;;;;;;;;;5056948;28;20028;-74
2022/03/14 12:26:34;;;;;;;2.80;1.23;;;;;;;;;;5047215;28;20151;-73
2022/03/14 12:29:20;;;;;;;5.32;1.50;;;;;;;;;;5052515;28;20444;-74
2022/03/14 12:31:46;;;;;;;5.55;1.55;;;;;;;;;;5061085;28;20037;-73
2022/03/14 12:34:13;;;;;;;3.75;1.65;;;;;;;;;;5059093;28;20025;-73
2022/03/14 12:36:42;;;;;;;3.10;1.20;;;;;;;;;;5049764;28;20029;-73
2022/03/14 12:39:09;;;;;;;6.05;1.40;;;;;;;;;;5052826;28;20032;-73
2022/03/14 12:41:38;;;;;;;2.38;1.17;;;;;;;;;;5061655;28;20083;-73
2022/03/14 12:44:18;;;;;;;2.90;1.27;;;;;;;;;;5054293;28;20075;-73
2022/03/14 12:46:45;;;;;;;7.05;1.67;;;;;;;;;;5055125;28;20059;-73
2022/03/14 12:49:11;;;;;;;2.45;1.00;;;;;;;;;;5059298;28;20040;-73
2022/03/14 12:51:39;;;;;;;6.25;1.00;;;;;;;;;;5060471;28;20032;-73
2022/03/14 12:54:05;;;;;;;5.22;1.27;;;;;;;;;;5055526;28;20029;-73
2022/03/14 12:56:32;;;;;;;2.92;1.15;;;;;;;;;;5055483;28;20025;-73
2022/03/14 12:59:03;;;;;;;6.97;1.10;;;;;;;;;;5067297;28;20087;-73
2022/03/14 13:01:30;;;;;;;3.77;1.53;;;;;;;;;;5051615;28;20043;-73
2022/03/14 13:03:57;;;;;;;2.50;1.20;;;;;;;;;;5049414;28;20140;-73
2022/03/14 13:06:30;;;;;;;2.15;1.27;;;;;;;;;;5049973;28;20033;-73
2022/03/14 13:08:56;;;;;;;2.70;1.38;;;;;;;;;;5057151;28;20579;-73
2022/03/14 13:11:22;;;;;;;3.97;1.38;;;;;;;;;;5052007;28;20435;-73
2022/03/14 13:13:48;;;;;;;5.15;1.58;;;;;;;;;;5062526;28;20071;-73
2022/03/14 13:16:18;;;;;;;2.67;1.30;;;;;;;;;;5061063;28;20056;-73
2022/03/14 13:18:48;;;;;;;4.25;1.20;;;;;;;;;;5060417;28;20146;-74
2022/03/14 13:21:16;;;;;;;4.70;1.77;;;;;;;;;;5047287;28;20036;-73
2022/03/14 13:23:43;;;;;;;3.78;1.40;;;;;;;;;;5051503;28;20041;-73
2022/03/14 13:26:09;;;;;;;3.50;1.30;;;;;;;;;;5052595;28;20033;-73
2022/03/14 13:28:39;;;;;;;4.13;1.73;;;;;;;;;;5034101;28;20034;-73
2022/03/14 13:31:07;;;;;;;3.25;1.40;;;;;;;;;;5060277;28;20025;-73
2022/03/14 13:33:34;;;;;;;3.40;1.40;;;;;;;;;;5053871;28;20037;-74
2022/03/14 13:36:01;;;;;;;3.10;1.50;;;;;;;;;;5068339;28;20028;-73
2022/03/14 13:38:35;;;;;;;4.30;1.48;;;;;;;;;;5047861;28;20147;-73
2022/03/14 13:41:02;;;;;;;2.65;1.30;;;;;;;;;;5051382;28;20025;-74
2022/03/14 13:43:28;;;;;;;4.05;1.35;;;;;;;;;;5048912;28;20513;-73
2022/03/14 13:46:14;;;;;;;3.78;1.50;;;;;;;;;;5038975;28;20029;-73
2022/03/14 13:48:50;;;;;;;5.20;1.55;;;;;;;;;;5016296;28;20795;-74
2022/03/14 13:51:16;;;;;;;6.45;1.75;;;;;;;;;;5050222;28;20099;-74
2022/03/14 13:53:46;;;;;;;5.95;1.73;;;;;;;;;;5059108;28;20044;-73
2022/03/14 13:56:12;;;;;;;5.10;1.50;;;;;;;;;;5042760;28;20032;-73
2022/03/14 13:58:39;;;;;;;4.93;1.80;;;;;;;;;;5051354;28;20034;-73
2022/03/14 14:01:05;;;;;;;2.90;1.42;;;;;;;;;;5050246;28;20039;-73
2022/03/14 14:03:35;;;;;;;3.80;1.40;;;;;;;;;;5049668;28;20065;-74
2022/03/14 14:06:17;;;;;;;4.00;1.40;;;;;;;;;;5043700;28;20786;-74
2022/03/14 14:08:43;;;;;;;3.40;1.13;;;;;;;;;;5050068;28;20626;-73
2022/03/14 14:11:23;;;;;;;3.92;1.40;;;;;;;;;;5057203;28;20025;-74
2022/03/14 14:13:49;;;;;;;5.30;1.90;;;;;;;;;;5055447;28;20074;-74
2022/03/14 14:16:19;;;;;;;5.15;1.38;;;;;;;;;;5053654;28;21165;-73
2022/03/14 14:18:46;;;;;;;3.58;1.35;;;;;;;;;;5052641;28;20032;-73
2022/03/14 14:21:18;;;;;;;7.47;1.80;;;;;;;;;;5050770;28;20100;-74
2022/03/14 14:23:44;;;;;;;5.63;1.95;;;;;;;;;;5052429;28;20044;-73
2022/03/14 14:26:11;;;;;;;7.32;2.40;;;;;;;;;;5050415;28;20112;-74
2022/03/14 14:28:38;;;;;;;10.35;2.38;;;;;;;;;;5046953;28;20033;-73
2022/03/14 14:31:04;;;;;;;4.30;1.90;;;;;;;;;;5054494;28;20017;-73
2022/03/14 14:33:32;;;;;;;4.47;1.80;;;;;;;;;;5048946;28;20033;-73
2022/03/14 14:35:58;;;;;;;4.13;1.80;;;;;;;;;;5051582;28;20551;-74
2022/03/14 14:38:32;;;;;;;5.07;1.88;;;;;;;;;;5055535;28;20068;-74
2022/03/14 14:41:02;;;;;;;6.53;2.13;;;;;;;;;;5051646;28;20071;-74
2022/03/14 14:43:29;;;;;;;6.82;2.10;;;;;;;;;;5057537;28;20070;-73